createdAt,value
2023-12-09T00:00:51.946Z,27.60
2023-12-09T00:03:21.528Z,36.57
2023-12-09T00:05:48.621Z,30.07
2023-12-09T00:08:15.650Z,22.87
2023-12-09T00:10:42.322Z,25.60
2023-12-09T00:13:08.948Z,31.37
2023-12-09T00:15:35.709Z,19.87
2023-12-09T00:18:02.473Z,26.73
2023-12-09T00:20:29.443Z,34.23
2023-12-09T00:22:56.239Z,20.63
2023-12-09T00:25:25.769Z,27.93
2023-12-09T00:27:52.493Z,26.10
2023-12-09T00:30:19.296Z,28.40
2023-12-09T00:32:46.085Z,23.83
2023-12-09T00:35:14.743Z,32.33
2023-12-09T00:37:42.420Z,35.53
2023-12-09T00:40:09.515Z,24.37
2023-12-09T00:42:36.396Z,28.77
2023-12-09T00:45:03.330Z,26.93
2023-12-09T00:47:32.261Z,22.33
2023-12-09T00:49:59.105Z,29.47
2023-12-09T00:52:26.016Z,29.67
2023-12-09T00:54:52.892Z,23.03
2023-12-09T00:57:22.023Z,28.23
2023-12-09T00:59:48.841Z,29.23
2023-12-09T01:02:15.741Z,28.87
2023-12-09T01:04:42.622Z,26.40
2023-12-09T01:07:11.731Z,28.37
2023-12-09T01:09:41.311Z,25.80
2023-12-09T01:12:08.192Z,25.80
2023-12-09T01:14:35.387Z,23.00
2023-12-09T01:17:04.615Z,28.43
2023-12-09T01:19:31.271Z,19.33
2023-12-09T01:21:58.038Z,21.47
2023-12-09T01:24:27.977Z,27.87
2023-12-09T01:26:54.673Z,29.33
2023-12-09T01:29:21.509Z,27.37
2023-12-09T01:31:48.182Z,22.23
2023-12-09T01:34:15.068Z,24.53
2023-12-09T01:36:41.956Z,24.40
2023-12-09T01:39:10.261Z,29.17
2023-12-09T01:41:39.922Z,23.83
2023-12-09T01:44:06.742Z,35.13
2023-12-09T01:46:34.335Z,23.77
2023-12-09T01:49:01.277Z,26.87
2023-12-09T01:51:28.915Z,24.50
2023-12-09T01:53:56.252Z,28.50
2023-12-09T01:56:23.251Z,22.10
2023-12-09T01:58:50.667Z,27.73
2023-12-09T02:01:17.549Z,30.53
2023-12-09T02:03:44.746Z,17.27
2023-12-09T02:06:11.656Z,27.27
2023-12-09T02:08:39.521Z,29.30
2023-12-09T02:11:46.430Z,24.50
2023-12-09T02:14:21.809Z,26.87
2023-12-09T02:17:09.381Z,24.90
2023-12-09T02:19:36.769Z,22.20
2023-12-09T02:22:05.322Z,23.13
2023-12-09T02:24:33.020Z,24.17
2023-12-09T02:27:05.999Z,25.63
2023-12-09T02:29:39.973Z,24.53
2023-12-09T02:32:09.184Z,26.87
2023-12-09T02:34:40.762Z,32.43
2023-12-09T02:37:09.458Z,29.73
2023-12-09T02:39:37.596Z,23.67
2023-12-09T02:42:06.817Z,24.57
2023-12-09T02:44:34.268Z,25.70
2023-12-09T02:47:01.175Z,22.90
2023-12-09T02:49:28.010Z,24.83
2023-12-09T02:51:54.848Z,25.80
2023-12-09T02:54:21.652Z,24.53
2023-12-09T02:56:55.724Z,22.47
2023-12-09T02:59:22.463Z,24.97
2023-12-09T03:01:49.287Z,26.70
2023-12-09T03:04:16.336Z,21.33
2023-12-09T03:06:46.074Z,27.63
2023-12-09T03:09:12.876Z,28.47
2023-12-09T03:11:39.668Z,26.77
2023-12-09T03:14:06.427Z,27.50
2023-12-09T03:16:35.756Z,23.47
2023-12-09T03:19:05.495Z,26.87
2023-12-09T03:21:32.624Z,24.07
2023-12-09T03:24:02.198Z,31.27
2023-12-09T03:26:28.922Z,30.40
2023-12-09T03:28:55.620Z,29.93
2023-12-09T03:31:27.866Z,29.60
2023-12-09T03:33:54.648Z,30.40
2023-12-09T03:36:21.459Z,35.47
2023-12-09T03:38:48.228Z,30.17
2023-12-09T03:41:14.987Z,29.47
2023-12-09T03:43:41.830Z,38.20
2023-12-09T03:46:08.624Z,23.53
2023-12-09T03:48:35.507Z,26.03
2023-12-09T03:51:03.206Z,23.03
2023-12-09T03:53:30.094Z,21.93
2023-12-09T03:55:59.526Z,35.43
2023-12-09T03:58:26.268Z,21.70
2023-12-09T04:00:52.969Z,27.63
2023-12-09T04:03:20.089Z,26.17
2023-12-09T04:05:47.100Z,28.43
2023-12-09T04:08:13.844Z,27.70
2023-12-09T04:10:40.536Z,32.43
2023-12-09T04:13:07.390Z,31.53
2023-12-09T04:15:34.280Z,26.43
2023-12-09T04:18:01.124Z,28.17
2023-12-09T04:20:28.265Z,33.13
2023-12-09T04:22:55.686Z,25.10
2023-12-09T04:25:25.017Z,27.27
2023-12-09T04:27:52.534Z,27.13
2023-12-09T04:30:19.415Z,21.57
2023-12-09T04:32:46.336Z,26.00
2023-12-09T04:35:13.099Z,28.30
2023-12-09T04:37:39.978Z,22.67
2023-12-09T04:40:11.552Z,32.03
2023-12-09T04:42:39.282Z,30.17
2023-12-09T04:45:07.742Z,33.33
2023-12-09T04:47:38.145Z,25.57
2023-12-09T04:50:05.871Z,24.60
2023-12-09T04:52:32.593Z,22.43
2023-12-09T04:54:59.395Z,25.87
2023-12-09T04:57:26.173Z,25.50
2023-12-09T04:59:53.065Z,23.40
2023-12-09T05:02:21.542Z,21.53
2023-12-09T05:04:48.464Z,19.87
2023-12-09T05:07:15.542Z,27.10
2023-12-09T05:09:42.747Z,19.60
2023-12-09T05:12:09.568Z,19.10
2023-12-09T05:14:36.570Z,21.33
2023-12-09T05:17:03.325Z,24.33
2023-12-09T05:19:30.070Z,27.80
2023-12-09T05:21:56.889Z,25.57
2023-12-09T05:24:23.705Z,23.40
2023-12-09T05:26:50.455Z,20.83
2023-12-09T05:29:17.115Z,22.90
2023-12-09T05:31:44.430Z,24.07
2023-12-09T05:34:11.426Z,16.37
2023-12-09T05:36:39.490Z,22.10
2023-12-09T05:39:06.485Z,18.40
2023-12-09T05:41:33.397Z,28.53
2023-12-09T05:44:00.277Z,23.77
2023-12-09T05:46:26.986Z,24.17
2023-12-09T05:48:53.851Z,25.60
2023-12-09T05:51:20.710Z,16.17
2023-12-09T05:53:47.493Z,32.73
2023-12-09T05:56:14.328Z,14.57
2023-12-09T05:58:44.046Z,14.93
2023-12-09T06:01:11.518Z,20.83
2023-12-09T06:03:38.476Z,19.30
2023-12-09T06:06:06.109Z,20.07
2023-12-09T06:08:33.957Z,18.60
2023-12-09T06:11:01.027Z,20.47
2023-12-09T06:13:27.746Z,20.40
2023-12-09T06:15:54.462Z,21.67
2023-12-09T06:18:21.267Z,18.60
2023-12-09T06:20:48.123Z,17.93
2023-12-09T06:23:14.920Z,25.53
2023-12-09T06:25:41.672Z,24.27
2023-12-09T06:28:08.402Z,19.43
2023-12-09T06:30:35.304Z,17.97
2023-12-09T06:33:02.253Z,12.77
2023-12-09T06:35:29.260Z,17.67
2023-12-09T06:37:57.272Z,18.37
2023-12-09T06:40:24.815Z,19.07
2023-12-09T06:42:51.815Z,18.20
2023-12-09T06:45:18.782Z,20.60
2023-12-09T06:47:45.682Z,24.57
2023-12-09T06:50:12.608Z,17.30
2023-12-09T06:52:40.569Z,14.60
2023-12-09T06:55:07.989Z,16.93
2023-12-09T06:57:35.838Z,13.83
2023-12-09T07:00:06.301Z,18.17
2023-12-09T07:02:44.175Z,16.90
2023-12-09T07:05:19.491Z,22.83
2023-12-09T07:07:47.578Z,17.60
2023-12-09T07:10:14.909Z,15.40
2023-12-09T07:12:41.691Z,13.80
2023-12-09T07:15:09.602Z,16.73
2023-12-09T07:17:36.496Z,22.00
2023-12-09T07:20:06.904Z,14.47
2023-12-09T07:22:33.941Z,18.40
2023-12-09T07:25:00.678Z,20.37
2023-12-09T07:27:28.042Z,16.00
2023-12-09T07:29:54.948Z,15.40
2023-12-09T07:32:21.874Z,17.67
2023-12-09T07:34:48.709Z,19.60
2023-12-09T07:37:15.959Z,16.17
2023-12-09T07:39:43.496Z,18.53
2023-12-09T07:42:13.438Z,14.10
2023-12-09T07:44:40.162Z,14.20
2023-12-09T07:47:06.973Z,18.90
2023-12-09T07:49:34.031Z,13.67
2023-12-09T07:52:01.023Z,17.67
2023-12-09T07:54:28.500Z,16.17
2023-12-09T07:56:55.270Z,22.20
2023-12-09T07:59:22.131Z,16.00
2023-12-09T08:01:48.926Z,16.03
2023-12-09T08:04:16.044Z,20.40
2023-12-09T08:06:42.875Z,15.63
2023-12-09T08:09:10.622Z,12.10
2023-12-09T08:11:37.401Z,11.17
2023-12-09T08:14:04.109Z,12.80
2023-12-09T08:16:30.871Z,15.87
2023-12-09T08:18:57.742Z,16.90
2023-12-09T08:21:26.171Z,16.53
2023-12-09T08:23:53.144Z,11.57
2023-12-09T08:26:20.201Z,12.93
2023-12-09T08:28:47.412Z,12.50
2023-12-09T08:31:14.523Z,17.90
2023-12-09T08:33:42.140Z,11.30
2023-12-09T08:36:10.058Z,16.57
2023-12-09T08:38:39.635Z,12.93
2023-12-09T08:41:09.484Z,11.30
2023-12-09T08:43:36.226Z,17.50
2023-12-09T08:46:03.191Z,13.20
2023-12-09T08:48:30.203Z,14.67
2023-12-09T08:50:57.002Z,13.53
2023-12-09T08:53:23.685Z,12.87
2023-12-09T08:55:50.441Z,13.80
2023-12-09T08:58:17.326Z,14.27
2023-12-09T09:00:44.417Z,17.67
2023-12-09T09:03:11.440Z,16.73
2023-12-09T09:05:38.175Z,12.43
2023-12-09T09:08:05.299Z,11.97
2023-12-09T09:10:32.058Z,17.17
2023-12-09T09:12:58.762Z,14.70
2023-12-09T09:15:25.530Z,13.90
2023-12-09T09:17:52.437Z,9.10
2023-12-09T09:20:19.365Z,12.70
2023-12-09T09:22:50.386Z,11.73
2023-12-09T09:25:22.738Z,12.50
2023-12-09T09:27:52.788Z,9.13
2023-12-09T09:30:21.536Z,9.73
2023-12-09T09:32:48.529Z,9.57
2023-12-09T09:35:15.497Z,13.70
2023-12-09T09:37:42.234Z,12.83
2023-12-09T09:40:09.445Z,9.67
2023-12-09T09:42:43.818Z,13.50
2023-12-09T09:45:27.472Z,10.23
2023-12-09T09:47:57.685Z,11.53
2023-12-09T09:50:26.724Z,8.23
2023-12-09T09:52:54.709Z,11.53
2023-12-09T09:55:23.104Z,11.40
2023-12-09T09:57:51.160Z,10.03
2023-12-09T10:00:20.554Z,10.00
2023-12-09T10:02:52.446Z,5.87
2023-12-09T10:05:23.137Z,9.67
2023-12-09T10:07:49.916Z,14.17
2023-12-09T10:10:19.435Z,10.20
2023-12-09T10:12:49.218Z,9.33
2023-12-09T10:15:15.969Z,8.10
2023-12-09T10:17:43.021Z,8.33
2023-12-09T10:20:10.622Z,10.10
2023-12-09T10:22:39.178Z,10.83
2023-12-09T10:25:06.437Z,11.53
2023-12-09T10:27:34.079Z,13.10
2023-12-09T10:30:01.870Z,10.03
2023-12-09T10:32:30.626Z,14.00
2023-12-09T10:34:59.665Z,11.23
2023-12-09T10:37:28.242Z,9.10
2023-12-09T10:39:55.077Z,9.20
2023-12-09T10:42:24.184Z,9.90
2023-12-09T10:44:51.100Z,10.30
2023-12-09T10:47:18.194Z,8.83
2023-12-09T10:49:45.064Z,8.73
2023-12-09T10:52:11.950Z,13.00
2023-12-09T10:54:42.068Z,5.77
2023-12-09T10:57:12.143Z,7.50
2023-12-09T10:59:43.249Z,7.33
2023-12-09T11:02:10.292Z,13.40
2023-12-09T11:04:39.842Z,7.87
2023-12-09T11:07:07.826Z,10.57
2023-12-09T11:09:35.216Z,11.90
2023-12-09T11:12:04.631Z,7.77
2023-12-09T11:14:32.629Z,11.43
2023-12-09T11:17:01.471Z,4.63
2023-12-09T11:19:28.580Z,6.27
2023-12-09T11:21:55.966Z,8.07
2023-12-09T11:24:31.119Z,8.03
2023-12-09T11:26:57.973Z,8.90
2023-12-09T11:29:26.182Z,9.03
2023-12-09T11:31:54.548Z,5.60
2023-12-09T11:34:26.004Z,8.93
2023-12-09T11:36:53.866Z,10.27
2023-12-09T11:39:23.146Z,6.47
2023-12-09T11:41:51.087Z,10.77
2023-12-09T11:44:18.254Z,7.13
2023-12-09T11:46:46.969Z,5.13
2023-12-09T11:49:14.301Z,4.30
2023-12-09T11:51:47.487Z,6.20
2023-12-09T11:54:14.345Z,4.03
2023-12-09T11:56:41.318Z,10.23
2023-12-09T11:59:08.410Z,5.63
2023-12-09T12:01:37.564Z,7.60
2023-12-09T12:04:05.437Z,6.10
2023-12-09T12:06:33.785Z,6.80
2023-12-09T12:09:00.894Z,5.23
2023-12-09T12:11:27.711Z,7.17
2023-12-09T12:13:54.651Z,7.83
2023-12-09T12:16:22.314Z,8.07
2023-12-09T12:18:49.770Z,3.93
2023-12-09T12:21:17.194Z,3.90
2023-12-09T12:23:44.554Z,7.00
2023-12-09T12:26:12.485Z,3.90
2023-12-09T12:28:39.510Z,3.63
2023-12-09T12:31:07.864Z,2.20
2023-12-09T12:33:35.683Z,4.07
2023-12-09T12:36:02.949Z,4.53
2023-12-09T12:38:30.224Z,4.33
2023-12-09T12:40:58.711Z,5.60
2023-12-09T12:43:29.612Z,4.00
2023-12-09T12:45:59.214Z,4.83
2023-12-09T12:48:26.538Z,3.07
2023-12-09T12:50:54.232Z,3.43
2023-12-09T12:53:23.955Z,4.30
2023-12-09T12:55:51.056Z,3.33
2023-12-09T12:58:17.867Z,3.07
2023-12-09T13:00:44.910Z,3.03
2023-12-09T13:03:11.798Z,5.27
2023-12-09T13:05:38.718Z,3.20
2023-12-09T13:08:05.893Z,2.30
2023-12-09T13:10:33.032Z,2.57
2023-12-09T13:13:00.946Z,2.23
2023-12-09T13:15:28.246Z,5.80
2023-12-09T13:17:55.758Z,2.33
2023-12-09T13:20:22.530Z,3.33
2023-12-09T13:22:49.364Z,3.13
2023-12-09T13:25:18.501Z,3.80
2023-12-09T13:27:45.892Z,3.37
2023-12-09T13:30:14.645Z,5.07
2023-12-09T13:32:41.860Z,2.67
2023-12-09T13:35:09.010Z,1.23
2023-12-09T13:37:37.288Z,6.00
2023-12-09T13:40:06.163Z,3.47
2023-12-09T13:42:33.501Z,1.77
2023-12-09T13:45:00.709Z,3.77
2023-12-09T13:47:27.544Z,3.27
2023-12-09T13:49:56.813Z,3.80
2023-12-09T13:52:29.902Z,3.93
2023-12-09T13:54:57.173Z,4.00
2023-12-09T13:57:24.189Z,2.10
2023-12-09T13:59:50.991Z,3.40
2023-12-09T14:02:18.634Z,1.53
2023-12-09T14:04:45.624Z,1.53
2023-12-09T14:07:12.486Z,2.33
2023-12-09T14:09:39.375Z,2.83
2023-12-09T14:12:06.835Z,2.33
2023-12-09T14:14:34.011Z,1.77
2023-12-09T14:17:01.237Z,1.90
2023-12-09T14:19:28.445Z,2.87
2023-12-09T14:21:55.340Z,1.53
2023-12-09T14:24:22.301Z,4.10
2023-12-09T14:26:49.347Z,2.10
2023-12-09T14:29:16.170Z,3.70
2023-12-09T14:31:50.639Z,1.67
2023-12-09T14:34:17.671Z,0.97
2023-12-09T14:36:44.769Z,3.03
2023-12-09T14:39:12.964Z,1.93
2023-12-09T14:41:41.218Z,1.30
2023-12-09T14:44:09.149Z,4.70
2023-12-09T14:46:36.721Z,0.97
2023-12-09T14:49:06.604Z,1.23
2023-12-09T14:51:40.711Z,1.73
2023-12-09T14:54:12.521Z,1.37
2023-12-09T14:56:42.513Z,0.40
2023-12-09T14:59:09.412Z,2.20
2023-12-09T15:01:36.967Z,1.47
2023-12-09T15:04:05.733Z,2.57
2023-12-09T15:06:34.471Z,1.00
2023-12-09T15:09:01.907Z,1.67
2023-12-09T15:11:28.933Z,2.77
2023-12-09T15:13:55.745Z,1.50
2023-12-09T15:16:23.009Z,2.70
2023-12-09T15:18:50.157Z,2.43
2023-12-09T15:21:17.163Z,1.97
2023-12-09T15:23:44.083Z,2.57
2023-12-09T15:26:11.890Z,1.33
2023-12-09T15:28:39.063Z,0.57
2023-12-09T15:31:05.919Z,1.07
2023-12-09T15:33:32.920Z,1.80
2023-12-09T15:35:59.938Z,0.97
2023-12-09T15:38:26.703Z,1.43
2023-12-09T15:40:56.059Z,0.97
2023-12-09T15:43:22.997Z,2.43
2023-12-09T15:45:50.335Z,1.60
2023-12-09T15:48:17.746Z,1.73
2023-12-09T15:50:44.743Z,2.17
2023-12-09T15:53:11.567Z,1.40
2023-12-09T15:55:38.380Z,1.83
2023-12-09T15:58:08.176Z,1.73
2023-12-09T16:00:35.012Z,1.20
2023-12-09T16:03:05.293Z,1.77
2023-12-09T16:05:32.190Z,2.87
2023-12-09T16:08:02.234Z,13.03
2023-12-09T16:10:29.261Z,3.50
2023-12-09T16:12:56.268Z,3.97
2023-12-09T16:15:26.170Z,2.20
2023-12-09T16:17:54.642Z,1.63
2023-12-09T16:20:21.995Z,1.93
2023-12-09T16:22:48.869Z,1.43
2023-12-09T16:25:15.796Z,1.43
2023-12-09T16:27:42.686Z,1.60
2023-12-09T16:30:11.586Z,2.00
2023-12-09T16:32:38.716Z,1.70
2023-12-09T16:35:06.839Z,1.87
2023-12-09T16:37:35.168Z,2.47
2023-12-09T16:40:05.446Z,3.67
2023-12-09T16:42:32.989Z,3.93
2023-12-09T16:44:59.988Z,2.30
2023-12-09T16:47:31.259Z,2.37
2023-12-09T16:49:58.391Z,2.20
2023-12-09T16:52:25.338Z,2.63
2023-12-09T16:54:52.258Z,4.10
2023-12-09T16:57:19.287Z,2.63
2023-12-09T16:59:46.160Z,3.73
2023-12-09T17:02:13.347Z,3.10
2023-12-09T17:04:40.244Z,2.97
2023-12-09T17:07:07.037Z,3.17
2023-12-09T17:09:34.262Z,3.30
2023-12-09T17:12:01.102Z,3.33
2023-12-09T17:14:28.214Z,3.83
2023-12-09T17:16:55.393Z,3.23
2023-12-09T17:19:22.668Z,3.63
2023-12-09T17:21:52.399Z,3.37
2023-12-09T17:24:20.727Z,4.73
2023-12-09T17:26:50.689Z,5.97
2023-12-09T17:29:17.671Z,3.83
2023-12-09T17:31:46.288Z,4.50
2023-12-09T17:34:14.644Z,4.07
2023-12-09T17:36:41.500Z,5.17
2023-12-09T17:39:08.660Z,6.33
2023-12-09T17:41:35.505Z,5.87
2023-12-09T17:44:02.382Z,6.77
2023-12-09T17:46:29.240Z,7.13
2023-12-09T17:48:56.864Z,8.57
2023-12-09T17:51:29.030Z,9.67
2023-12-09T17:53:56.865Z,12.20
2023-12-09T17:56:23.618Z,12.73
2023-12-09T17:58:54.521Z,13.90
2023-12-09T18:01:29.114Z,14.80
2023-12-09T18:03:59.318Z,16.77
2023-12-09T18:06:27.278Z,18.57
2023-12-09T18:08:55.311Z,20.57
2023-12-09T18:11:22.843Z,20.70
2023-12-09T18:13:49.795Z,25.20
2023-12-09T18:16:18.276Z,22.17
2023-12-09T18:18:46.044Z,20.90
2023-12-09T18:21:17.119Z,22.57
2023-12-09T18:23:44.091Z,21.60
2023-12-09T18:26:11.109Z,24.97
2023-12-09T18:28:39.709Z,26.20
2023-12-09T18:31:07.075Z,29.37
2023-12-09T18:33:36.753Z,23.63
2023-12-09T18:36:04.317Z,20.67
2023-12-09T18:38:31.266Z,27.80
2023-12-09T18:40:58.098Z,22.13
2023-12-09T18:43:25.070Z,19.80
2023-12-09T18:45:53.596Z,25.10
2023-12-09T18:48:20.769Z,21.43
2023-12-09T18:50:48.193Z,23.17
2023-12-09T18:53:15.068Z,19.83
2023-12-09T18:55:41.914Z,27.07
2023-12-09T18:58:08.801Z,26.27
2023-12-09T19:00:37.216Z,19.07
2023-12-09T19:03:04.607Z,23.67
2023-12-09T19:05:31.625Z,17.80
2023-12-09T19:07:58.420Z,20.10
2023-12-09T19:10:26.124Z,19.13
2023-12-09T19:12:52.995Z,20.30
2023-12-09T19:15:22.957Z,24.77
2023-12-09T19:17:49.867Z,15.63
2023-12-09T19:20:16.690Z,25.50
2023-12-09T19:22:43.578Z,16.03
2023-12-09T19:25:10.355Z,22.33
2023-12-09T19:27:37.375Z,20.43
2023-12-09T19:30:04.794Z,16.50
2023-12-09T19:32:31.990Z,21.77
2023-12-09T19:34:59.077Z,13.77
2023-12-09T19:37:25.929Z,17.13
2023-12-09T19:39:52.696Z,19.30
2023-12-09T19:42:19.668Z,21.73
2023-12-09T19:44:46.769Z,22.80
2023-12-09T19:47:16.027Z,18.97
2023-12-09T19:49:43.718Z,20.13
2023-12-09T19:52:10.663Z,19.40
2023-12-09T19:54:40.462Z,16.37
2023-12-09T19:57:09.078Z,29.50
2023-12-09T19:59:36.010Z,19.73
2023-12-09T20:02:02.850Z,20.67
2023-12-09T20:04:29.726Z,25.13
2023-12-09T20:06:57.402Z,19.67
2023-12-09T20:09:24.378Z,17.57
2023-12-09T20:11:51.183Z,27.17
2023-12-09T20:14:18.035Z,23.63
2023-12-09T20:16:45.406Z,25.10
2023-12-09T20:19:12.264Z,15.93
2023-12-09T20:21:39.218Z,22.23
2023-12-09T20:24:06.354Z,23.23
2023-12-09T20:26:33.216Z,21.03
2023-12-09T20:29:00.240Z,22.03
2023-12-09T20:31:27.020Z,20.50
2023-12-09T20:33:53.935Z,19.30
2023-12-09T20:36:21.950Z,24.47
2023-12-09T20:38:48.750Z,26.70
2023-12-09T20:41:15.793Z,23.53
2023-12-09T20:43:45.206Z,20.20
2023-12-09T20:46:15.267Z,18.40
2023-12-09T20:48:42.225Z,24.73
2023-12-09T20:51:09.203Z,21.23
2023-12-09T20:53:36.341Z,22.23
2023-12-09T20:56:04.506Z,23.27
2023-12-09T20:58:31.924Z,26.63
2023-12-09T21:00:59.656Z,16.27
2023-12-09T21:03:26.493Z,21.03
2023-12-09T21:05:53.300Z,29.17
2023-12-09T21:08:20.063Z,23.37
2023-12-09T21:10:46.910Z,27.67
2023-12-09T21:13:13.759Z,20.77
2023-12-09T21:15:42.043Z,27.30
2023-12-09T21:18:10.139Z,21.53
2023-12-09T21:20:37.554Z,23.73
2023-12-09T21:23:04.406Z,20.53
2023-12-09T21:25:37.123Z,23.30
2023-12-09T21:28:04.902Z,25.83
2023-12-09T21:30:32.681Z,25.03
2023-12-09T21:33:01.014Z,19.23
2023-12-09T21:35:27.915Z,20.63
2023-12-09T21:37:54.879Z,29.57
2023-12-09T21:40:21.725Z,26.50
2023-12-09T21:42:48.637Z,24.30
2023-12-09T21:45:15.804Z,28.97
2023-12-09T21:47:42.687Z,22.07
2023-12-09T21:50:09.694Z,27.13
2023-12-09T21:52:36.504Z,22.63
2023-12-09T21:55:03.513Z,18.97
2023-12-09T21:57:36.456Z,24.87
2023-12-09T22:00:04.406Z,24.60
2023-12-09T22:02:31.449Z,19.43
2023-12-09T22:04:58.646Z,24.83
2023-12-09T22:07:25.551Z,19.17
2023-12-09T22:09:52.656Z,24.47
2023-12-09T22:12:25.548Z,19.13
2023-12-09T22:14:52.414Z,24.37
2023-12-09T22:17:19.606Z,22.13
2023-12-09T22:19:46.458Z,23.83
2023-12-09T22:22:13.376Z,20.53
2023-12-09T22:24:40.166Z,27.30
2023-12-09T22:27:07.886Z,26.07
2023-12-09T22:29:36.179Z,30.13
2023-12-09T22:32:06.216Z,20.90
2023-12-09T22:34:33.236Z,25.20
2023-12-09T22:37:00.112Z,29.83
2023-12-09T22:39:27.044Z,27.43
2023-12-09T22:41:53.937Z,19.63
2023-12-09T22:44:23.652Z,22.10
2023-12-09T22:46:50.489Z,28.23
2023-12-09T22:49:18.870Z,27.57
2023-12-09T22:51:46.292Z,21.77
2023-12-09T22:54:13.024Z,21.93
2023-12-09T22:56:39.864Z,23.23
2023-12-09T22:59:06.734Z,23.23
2023-12-09T23:01:36.829Z,24.17
2023-12-09T23:04:03.777Z,24.50
2023-12-09T23:06:30.819Z,22.40
2023-12-09T23:08:58.615Z,23.13
2023-12-09T23:11:28.619Z,22.00
2023-12-09T23:13:55.483Z,25.40
2023-12-09T23:16:22.247Z,23.37
2023-12-09T23:18:49.302Z,20.80
2023-12-09T23:21:16.861Z,20.37
2023-12-09T23:23:43.609Z,23.83
2023-12-09T23:26:10.398Z,23.37
2023-12-09T23:28:37.174Z,24.20
2023-12-09T23:31:04.129Z,24.07
2023-12-09T23:33:32.212Z,23.97
2023-12-09T23:35:59.303Z,22.00
2023-12-09T23:38:29.011Z,28.33
2023-12-09T23:40:55.835Z,26.10
2023-12-09T23:43:22.951Z,30.43
2023-12-09T23:45:49.932Z,23.43
2023-12-09T23:48:19.908Z,28.30
2023-12-09T23:50:47.028Z,27.43
2023-12-09T23:53:15.418Z,24.00
2023-12-09T23:55:42.379Z,26.47
2023-12-09T23:58:09.709Z,23.53
